Chadstone Weather > Observations for 01/04/21

Select Day:



Observations
Time Temp Hum DP Wind Gust Dir Rain >9am Press
C % C kph kph mm hPa
00:00 16.3 87 14.1 0.0 0.0 N 0.0 1012.5
00:10 16.0 87 13.8 0.0 0.0 N 0.0 1012.4
00:20 15.9 89 14.1 0.0 0.0 N 0.0 1012.4
00:30 15.8 89 14.0 0.0 0.0 N 0.0 1012.3
00:40 15.7 89 13.9 0.0 0.0 N 0.0 1012.3
00:50 15.7 90 14.1 0.0 0.0 N 0.0 1012.2
01:00 15.6 90 14.0 0.0 0.0 N 0.0 1012.1
01:10 15.6 90 14.0 0.0 0.0 N 0.0 1012.1
01:20 15.5 90 13.9 0.0 0.0 N 0.0 1012.0
01:30 15.4 90 13.8 0.0 0.0 N 0.0 1012.1
01:40 15.2 90 13.6 0.0 0.0 N 0.0 1012.1
01:50 15.1 90 13.5 0.0 0.0 N 0.0 1012.0
02:00 15.0 90 13.4 0.0 0.0 N 0.0 1012.2
02:10 14.9 91 13.5 0.0 0.0 N 0.0 1012.1
02:20 14.7 91 13.3 0.0 0.0 N 0.0 1012.1
02:30 14.7 92 13.4 0.0 0.0 N 0.0 1012.2
02:40 14.6 92 13.3 0.0 0.0 N 0.0 1012.2
02:50 14.6 92 13.3 0.0 0.0 N 0.0 1012.3
03:00 14.7 92 13.4 0.0 0.0 N 0.0 1012.2
03:10 14.6 92 13.3 0.0 0.0 N 0.0 1012.2
03:20 14.5 93 13.4 0.0 0.0 N 0.0 1012.2
03:30 14.4 93 13.3 0.0 0.0 N 0.0 1012.2
03:40 14.3 93 13.2 0.0 0.0 N 0.0 1012.2
03:50 14.3 93 13.2 0.0 0.0 N 0.0 1011.9
04:00 14.3 93 13.2 0.0 0.0 N 0.0 1011.8
04:10 14.4 93 13.3 0.0 0.0 N 0.0 1011.6
04:20 14.3 93 13.2 0.0 0.0 N 0.0 1011.5
04:30 14.2 93 13.1 0.0 0.0 N 0.0 1011.4
04:40 14.3 93 13.2 0.0 0.0 N 0.0 1011.4
04:50 14.4 94 13.5 0.0 0.0 N 0.0 1011.4
05:00 14.4 94 13.5 0.0 0.0 N 0.0 1011.5
05:10 14.3 94 13.4 0.0 0.0 N 0.0 1011.4
05:20 14.4 94 13.5 0.0 0.0 N 0.0 1011.5
05:30 14.3 94 13.4 0.0 0.0 N 0.0 1011.6
05:40 14.2 94 13.3 0.0 0.0 N 0.0 1011.7
05:50 14.2 94 13.3 0.0 0.0 N 0.0 1011.8
06:00 14.2 94 13.3 0.0 0.0 N 0.0 1011.9
06:10 14.1 94 13.2 0.0 0.0 N 0.0 1011.9
06:20 14.1 94 13.2 0.0 0.0 N 0.0 1012.0
06:30 14.1 94 13.2 0.0 0.0 N 0.0 1012.1
06:40 14.0 94 13.1 0.0 0.0 N 0.0 1012.2
06:50 14.0 94 13.1 0.0 1.1 SSE 0.0 1012.4
07:00 14.0 94 13.1 0.0 0.0 N 0.0 1012.5
07:10 13.9 95 13.1 0.0 0.0 N 0.0 1012.4
07:20 13.9 95 13.1 0.0 0.0 N 0.0 1012.5
07:30 13.9 95 13.1 0.0 0.0 N 0.0 1012.7
07:40 13.9 95 13.1 0.0 0.0 N 0.0 1012.7
07:50 13.9 95 13.1 0.0 0.0 N 0.0 1012.6
08:00 14.0 94 13.1 0.0 0.0 N 0.0 1012.7
08:10 14.0 94 13.1 0.0 0.0 N 0.0 1012.8
08:20 14.2 94 13.3 0.0 0.0 N 0.0 1012.7
08:30 14.4 94 13.5 0.0 0.0 N 0.0 1012.9
08:40 14.6 93 13.5 2.3 8.6 NNE 0.0 1013.1
08:50 14.9 92 13.6 2.8 7.2 N 0.0 1013.0
09:00 15.2 90 13.6 2.3 8.6 N 0.0 1013.0
09:10 15.6 89 13.8 3.6 11.2 NNE 0.0 1013.0
09:20 16.0 86 13.7 4.0 12.2 NNE 0.0 1013.1
09:30 16.4 85 13.9 4.7 9.7 N 0.0 1012.9
09:40 17.0 82 13.9 5.7 11.2 N 0.0 1013.0
09:50 17.5 81 14.2 2.2 7.2 N 0.0 1012.9
10:00 17.9 78 14.0 4.9 8.6 N 0.0 1012.8
10:10 18.5 76 14.2 5.7 11.2 NNE 0.0 1012.9
10:20 19.0 71 13.6 4.5 9.7 N 0.0 1012.9
10:30 19.5 69 13.7 4.7 9.7 NNE 0.0 1012.8
10:40 20.0 67 13.7 3.3 6.1 NNE 0.0 1012.9
10:50 20.5 66 13.9 2.5 6.1 NNE 0.0 1012.7
11:00 20.9 65 14.1 1.7 8.6 NNW 0.0 1012.8
11:10 21.6 63 14.3 3.2 7.2 WNW 0.0 1012.7
11:20 22.1 60 14.0 4.5 11.2 NW 0.0 1012.5
11:30 22.5 57 13.6 4.6 9.7 NNE 0.0 1012.4
11:40 23.2 56 14.0 4.4 9.7 NW 0.0 1012.3
11:50 23.5 56 14.2 2.7 7.2 NW 0.0 1012.2
12:00 23.9 55 14.3 4.7 12.2 NNW 0.0 1012.1
12:10 24.4 54 14.5 4.5 12.2 NNW 0.0 1011.9
12:20 24.8 53 14.6 2.9 12.2 NNW 0.0 1011.7
12:30 25.4 48 13.6 3.9 9.7 NNW 0.0 1011.6
12:40 25.7 48 13.9 4.2 12.2 NW 0.0 1011.3
12:50 26.1 45 13.3 4.8 12.2 W 0.0 1011.2
13:00 26.6 43 13.0 4.6 11.2 NW 0.0 1010.9
13:10 26.8 43 13.2 2.2 8.6 NW 0.0 1010.8
13:20 27.2 41 12.8 1.9 12.2 W 0.0 1010.7
13:30 27.4 41 13.0 2.5 7.2 WNW 0.0 1010.5
13:40 27.6 39 12.4 3.3 8.6 WNW 0.0 1010.4
13:50 27.7 35 10.9 4.0 9.7 WNW 0.0 1010.2
14:00 28.0 37 12.0 2.8 11.2 W 0.0 1010.2
14:10 28.2 37 12.2 2.0 13.3 W 0.0 1009.9
14:20 28.4 36 11.9 1.9 9.7 WNW 0.0 1010.0
14:30 28.4 36 11.9 2.8 9.7 W 0.0 1009.7
14:40 28.4 36 11.9 2.0 11.2 W 0.0 1009.7
14:50 28.5 35 11.6 2.8 9.7 NW 0.0 1009.6
15:00 28.4 34 11.0 0.2 5.0 WSW 0.0 1009.5
15:10 28.4 35 11.5 1.1 6.1 WNW 0.0 1009.5
15:20 28.5 35 11.6 1.0 7.2 W 0.0 1009.4
15:30 28.4 34 11.0 0.9 6.1 E 0.0 1009.4
15:40 28.5 34 11.1 1.3 9.7 SSE 0.0 1009.3
15:50 28.5 34 11.1 0.2 5.0 NE 0.0 1009.3
16:00 28.6 35 11.7 0.3 3.6 SW 0.0 1009.3
16:10 28.5 35 11.6 1.0 9.7 SSW 0.0 1009.4
16:20 28.6 35 11.7 1.4 7.2 S 0.0 1009.4
16:30 28.6 36 12.1 2.3 11.2 S 0.0 1009.3
16:40 28.3 36 11.8 0.3 7.2 SSE 0.0 1009.3
16:50 28.3 36 11.8 1.9 9.7 S 0.0 1009.4
17:00 28.2 36 11.7 0.3 6.1 SSE 0.0 1009.3
17:10 28.1 36 11.6 2.1 7.2 S 0.0 1009.3
17:20 28.0 36 11.6 1.0 8.6 S 0.0 1009.5
17:30 27.9 35 11.0 3.6 9.7 SE 0.0 1009.4
17:40 27.8 35 11.0 2.3 8.6 SE 0.0 1009.3
17:50 27.6 35 10.8 1.7 7.2 SE 0.0 1009.4
18:00 27.6 35 10.8 1.2 6.1 S 0.0 1009.7
18:10 27.4 36 11.0 1.3 6.1 SSE 0.0 1009.7
18:20 27.2 37 11.3 0.6 3.6 SSE 0.0 1009.8
18:30 27.1 38 11.6 0.1 3.6 SSE 0.0 1009.8
18:40 26.8 40 12.1 0.8 6.1 SSE 0.0 1009.8
18:50 26.5 39 11.4 0.2 6.1 S 0.0 1010.1
19:00 26.2 40 11.6 1.2 6.1 S 0.0 1010.2
19:10 26.0 42 12.1 0.0 3.6 SSE 0.0 1010.4
19:20 25.2 44 12.1 0.0 2.5 SE 0.0 1010.4
19:30 24.9 45 12.2 0.0 1.1 SE 0.0 1010.5
19:40 24.6 46 12.2 0.1 2.5 SE 0.0 1010.6
19:50 24.3 47 12.3 0.2 3.6 SE 0.0 1011.0
20:00 24.1 47 12.1 0.0 3.6 SSE 0.0 1011.1
20:10 23.9 47 11.9 0.6 5.0 SE 0.0 1011.1
20:20 23.4 47 11.5 0.3 5.0 SE 0.0 1011.4
20:30 23.4 46 11.1 0.2 3.6 SE 0.0 1011.6
20:40 23.4 46 11.1 1.0 6.1 SSE 0.0 1011.7
20:50 23.2 47 11.3 0.6 6.1 SSE 0.0 1011.9
21:00 23.1 47 11.2 0.6 5.0 S 0.0 1012.1
21:10 22.8 51 12.2 0.0 3.6 SE 0.0 1012.2
21:20 22.5 54 12.7 0.1 5.0 SSE 0.0 1012.3
21:30 22.3 55 12.8 0.2 5.0 SSE 0.0 1012.3
21:40 22.0 56 12.8 0.4 3.6 SSE 0.0 1012.5
21:50 22.0 54 12.3 1.0 8.6 S 0.0 1012.6
22:00 21.8 55 12.4 0.5 5.0 S 0.0 1012.7
22:10 21.6 54 11.9 0.9 6.1 SSE 0.0 1012.8
22:20 21.4 54 11.7 1.1 6.1 ESE 0.0 1012.9
22:30 21.1 55 11.7 0.7 5.0 ESE 0.0 1013.0
22:40 20.9 57 12.1 0.6 5.0 ESE 0.0 1013.0
22:50 20.5 59 12.2 0.0 2.5 SE 0.0 1013.0
23:00 20.1 60 12.1 0.1 5.0 SE 0.0 1012.9
23:10 19.9 62 12.4 0.0 0.0 N 0.0 1012.8
23:20 19.7 63 12.5 0.0 0.0 N 0.0 1013.0
23:30 19.4 64 12.4 0.0 0.0 N 0.0 1012.9
23:40 19.1 64 12.1 0.0 0.0 N 0.0 1013.0
23:50 18.9 66 12.4 0.0 0.0 N 0.0 1013.1